Terminal Aerodrome Forecast
Issued by NWS Sioux Falls, SD

Home | Current Version | Previous Version | Graphics & Text | Print | Product List | Glossary On
Versions: 1 2 3 4 5 6 7 8 9 10 11 12 13 14
000
FTUS43 KFSD 200537
TAFHON
TAF
KHON 200537Z 2006/2106 27006KT P6SM SCT150
     FM201600 26012G20KT P6SM SKC
     FM202100 31020G30KT P6SM SCT060
     FM210100 31010G18KT P6SM SKC
     FM210300 33008KT P6SM SKC=

USA.gov is the U.S. government's official web portal to all federal, state and local government web resources and services.